sensor_id;sensor_type;location;lat;lon;timestamp;pressure;altitude;pressure_sealevel;temperature;humidity
61645;BME280;47553;52.428;13.382;2022-08-11T00:00:39;101866.78;;;20.35;48.26
61645;BME280;47553;52.428;13.382;2022-08-11T00:02:44;101864.44;;;20.31;48.30
61645;BME280;47553;52.428;13.382;2022-08-11T00:04:46;101863.81;;;20.05;48.62
61645;BME280;47553;52.428;13.382;2022-08-11T00:06:49;101862.47;;;20.10;48.84
61645;BME280;47553;52.428;13.382;2022-08-11T00:08:52;101867.50;;;20.15;48.39
61645;BME280;47553;52.428;13.382;2022-08-11T00:10:57;101860.50;;;20.12;49.06
61645;BME280;47553;52.428;13.382;2022-08-11T00:13:03;101870.97;;;20.06;49.21
61645;BME280;47553;52.428;13.382;2022-08-11T00:15:07;101866.03;;;20.00;49.02
61645;BME280;47553;52.428;13.382;2022-08-11T00:17:14;101864.44;;;20.08;49.02
61645;BME280;47553;52.428;13.382;2022-08-11T00:19:20;101866.28;;;19.97;49.56
61645;BME280;47553;52.428;13.382;2022-08-11T00:21:42;101861.09;;;19.93;49.53
61645;BME280;47553;52.428;13.382;2022-08-11T00:24:05;101866.78;;;19.90;49.63
61645;BME280;47553;52.428;13.382;2022-08-11T00:26:07;101863.44;;;19.98;49.61
61645;BME280;47553;52.428;13.382;2022-08-11T00:28:25;101864.44;;;19.97;49.65
61645;BME280;47553;52.428;13.382;2022-08-11T00:30:37;101872.94;;;19.92;49.90
61645;BME280;47553;52.428;13.382;2022-08-11T00:32:42;101867.75;;;20.01;49.21
61645;BME280;47553;52.428;13.382;2022-08-11T00:34:46;101873.16;;;19.89;49.53
61645;BME280;47553;52.428;13.382;2022-08-11T00:36:50;101867.25;;;19.84;49.73
61645;BME280;47553;52.428;13.382;2022-08-11T00:39:03;101860.13;;;19.83;50.07
61645;BME280;47553;52.428;13.382;2022-08-11T00:41:14;101865.16;;;19.88;49.51
61645;BME280;47553;52.428;13.382;2022-08-11T00:43:21;101870.22;;;19.81;49.78
61645;BME280;47553;52.428;13.382;2022-08-11T00:45:28;101865.41;;;19.85;49.74
61645;BME280;47553;52.428;13.382;2022-08-11T00:47:39;101866.63;;;19.81;49.52
61645;BME280;47553;52.428;13.382;2022-08-11T00:49:55;101864.50;;;19.73;49.76
61645;BME280;47553;52.428;13.382;2022-08-11T00:52:15;101873.84;;;19.69;50.13
61645;BME280;47553;52.428;13.382;2022-08-11T00:54:42;101871.38;;;19.55;50.54
61645;BME280;47553;52.428;13.382;2022-08-11T01:02:16;101867.91;;;19.53;50.86
61645;BME280;47553;52.428;13.382;2022-08-11T01:05:00;101867.06;;;19.52;50.78
61645;BME280;47553;52.428;13.382;2022-08-11T01:07:41;101872.34;;;19.54;50.60
61645;BME280;47553;52.428;13.382;2022-08-11T01:10:19;101865.19;;;19.42;50.69
61645;BME280;47553;52.428;13.382;2022-08-11T01:12:48;101875.72;;;19.34;51.26
61645;BME280;47553;52.428;13.382;2022-08-11T01:15:27;101873.88;;;19.34;51.16
61645;BME280;47553;52.428;13.382;2022-08-11T01:18:13;101876.78;;;19.20;51.62
61645;BME280;47553;52.428;13.382;2022-08-11T01:29:08;101875.00;;;19.08;51.90
61645;BME280;47553;52.428;13.382;2022-08-11T01:31:46;101878.56;;;19.08;52.08
61645;BME280;47553;52.428;13.382;2022-08-11T01:37:04;101877.03;;;19.04;52.27
61645;BME280;47553;52.428;13.382;2022-08-11T01:39:44;101874.06;;;18.96;52.31
61645;BME280;47553;52.428;13.382;2022-08-11T01:42:04;101879.69;;;18.93;52.51
61645;BME280;47553;52.428;13.382;2022-08-11T01:46:34;101884.66;;;18.99;52.42
61645;BME280;47553;52.428;13.382;2022-08-11T01:48:42;101882.69;;;19.01;52.35
61645;BME280;47553;52.428;13.382;2022-08-11T01:50:56;101875.78;;;18.97;52.16
61645;BME280;47553;52.428;13.382;2022-08-11T01:53:15;101872.09;;;18.98;52.67
61645;BME280;47553;52.428;13.382;2022-08-11T01:55:24;101875.03;;;18.95;52.47
61645;BME280;47553;52.428;13.382;2022-08-11T01:57:30;101876.03;;;18.94;52.43
61645;BME280;47553;52.428;13.382;2022-08-11T01:59:38;101873.19;;;18.95;52.62
61645;BME280;47553;52.428;13.382;2022-08-11T02:02:02;101877.34;;;18.88;52.46
61645;BME280;47553;52.428;13.382;2022-08-11T02:04:16;101874.25;;;18.82;52.70
61645;BME280;47553;52.428;13.382;2022-08-11T02:06:27;101872.97;;;18.75;52.97
61645;BME280;47553;52.428;13.382;2022-08-11T02:08:41;101857.34;;;18.67;53.18
61645;BME280;47553;52.428;13.382;2022-08-11T02:10:57;101850.03;;;18.56;53.37
61645;BME280;47553;52.428;13.382;2022-08-11T02:13:13;101865.66;;;18.64;53.38
61645;BME280;47553;52.428;13.382;2022-08-11T02:15:24;101866.06;;;18.71;53.25
61645;BME280;47553;52.428;13.382;2022-08-11T02:17:40;101867.50;;;18.63;53.38
61645;BME280;47553;52.428;13.382;2022-08-11T02:19:53;101861.59;;;18.58;53.80
61645;BME280;47553;52.428;13.382;2022-08-11T02:21:58;101867.22;;;18.55;53.79
61645;BME280;47553;52.428;13.382;2022-08-11T02:24:09;101867.75;;;18.48;54.17
61645;BME280;47553;52.428;13.382;2022-08-11T02:26:16;101869.06;;;18.42;54.48
61645;BME280;47553;52.428;13.382;2022-08-11T02:28:22;101863.34;;;18.34;54.50
61645;BME280;47553;52.428;13.382;2022-08-11T02:30:31;101862.81;;;18.29;54.59
61645;BME280;47553;52.428;13.382;2022-08-11T02:32:37;101862.16;;;18.25;54.74
61645;BME280;47553;52.428;13.382;2022-08-11T02:34:46;101854.84;;;18.15;55.41
61645;BME280;47553;52.428;13.382;2022-08-11T02:37:12;101851.84;;;18.07;55.66
61645;BME280;47553;52.428;13.382;2022-08-11T02:39:30;101859.38;;;18.14;55.36
61645;BME280;47553;52.428;13.382;2022-08-11T02:41:43;101856.25;;;18.08;55.69
61645;BME280;47553;52.428;13.382;2022-08-11T02:44:01;101854.00;;;18.01;55.93
61645;BME280;47553;52.428;13.382;2022-08-11T02:46:17;101854.75;;;18.03;56.02
61645;BME280;47553;52.428;13.382;2022-08-11T02:48:28;101854.00;;;18.01;56.25
61645;BME280;47553;52.428;13.382;2022-08-11T02:50:36;101856.59;;;17.90;56.79
61645;BME280;47553;52.428;13.382;2022-08-11T02:52:44;101846.25;;;17.84;57.09
61645;BME280;47553;52.428;13.382;2022-08-11T02:54:49;101848.19;;;17.82;57.04
61645;BME280;47553;52.428;13.382;2022-08-11T02:56:58;101855.97;;;17.61;57.83
61645;BME280;47553;52.428;13.382;2022-08-11T02:59:06;101852.19;;;17.64;58.00
61645;BME280;47553;52.428;13.382;2022-08-11T03:01:16;101854.22;;;17.60;58.25
61645;BME280;47553;52.428;13.382;2022-08-11T03:03:24;101853.81;;;17.66;58.02
61645;BME280;47553;52.428;13.382;2022-08-11T03:05:36;101862.34;;;17.73;57.70
61645;BME280;47553;52.428;13.382;2022-08-11T03:07:57;101862.66;;;17.81;57.04
61645;BME280;47553;52.428;13.382;2022-08-11T03:10:10;101854.03;;;17.76;57.17
61645;BME280;47553;52.428;13.382;2022-08-11T03:12:17;101843.88;;;17.67;57.22
61645;BME280;47553;52.428;13.382;2022-08-11T03:14:24;101863.09;;;17.75;57.28
61645;BME280;47553;52.428;13.382;2022-08-11T03:16:36;101865.47;;;17.67;57.45
61645;BME280;47553;52.428;13.382;2022-08-11T03:19:02;101862.25;;;17.48;58.19
61645;BME280;47553;52.428;13.382;2022-08-11T03:21:14;101853.09;;;17.50;58.13
61645;BME280;47553;52.428;13.382;2022-08-11T03:23:26;101867.97;;;17.43;58.41
61645;BME280;47553;52.428;13.382;2022-08-11T03:25:39;101862.16;;;17.36;58.68
61645;BME280;47553;52.428;13.382;2022-08-11T03:27:49;101863.88;;;17.37;58.91
61645;BME280;47553;52.428;13.382;2022-08-11T03:29:57;101865.81;;;17.35;59.13
61645;BME280;47553;52.428;13.382;2022-08-11T03:32:06;101860.63;;;17.32;59.11
61645;BME280;47553;52.428;13.382;2022-08-11T03:34:15;101867.97;;;17.30;58.87
61645;BME280;47553;52.428;13.382;2022-08-11T03:36:27;101866.63;;;17.10;59.96
61645;BME280;47553;52.428;13.382;2022-08-11T03:39:07;101874.75;;;17.23;59.15
61645;BME280;47553;52.428;13.382;2022-08-11T03:41:18;101870.09;;;17.25;59.36
61645;BME280;47553;52.428;13.382;2022-08-11T03:43:55;101860.56;;;17.07;59.93
61645;BME280;47553;52.428;13.382;2022-08-11T03:46:04;101860.78;;;17.04;60.00
61645;BME280;47553;52.428;13.382;2022-08-11T03:48:17;101864.66;;;17.00;60.28
61645;BME280;47553;52.428;13.382;2022-08-11T03:50:28;101858.72;;;16.95;60.50
61645;BME280;47553;52.428;13.382;2022-08-11T03:52:46;101861.41;;;16.95;60.69
61645;BME280;47553;52.428;13.382;2022-08-11T03:54:53;101878.69;;;17.05;60.51
61645;BME280;47553;52.428;13.382;2022-08-11T03:57:26;101864.03;;;17.09;60.19
61645;BME280;47553;52.428;13.382;2022-08-11T04:00:03;101869.44;;;17.09;59.95
61645;BME280;47553;52.428;13.382;2022-08-11T04:02:32;101872.88;;;17.11;60.13
61645;BME280;47553;52.428;13.382;2022-08-11T04:05:20;101864.78;;;17.11;60.30
61645;BME280;47553;52.428;13.382;2022-08-11T04:10:22;101863.63;;;17.15;60.07
61645;BME280;47553;52.428;13.382;2022-08-11T04:12:43;101866.63;;;17.10;60.50
61645;BME280;47553;52.428;13.382;2022-08-11T04:15:19;101867.19;;;17.16;60.19
61645;BME280;47553;52.428;13.382;2022-08-11T04:17:47;101864.91;;;17.09;60.57
61645;BME280;47553;52.428;13.382;2022-08-11T04:20:08;101862.03;;;16.86;60.99
61645;BME280;47553;52.428;13.382;2022-08-11T04:22:30;101872.94;;;16.97;61.29
61645;BME280;47553;52.428;13.382;2022-08-11T04:25:05;101869.19;;;16.99;60.82
61645;BME280;47553;52.428;13.382;2022-08-11T04:27:46;101874.59;;;17.12;60.55
61645;BME280;47553;52.428;13.382;2022-08-11T04:30:01;101866.41;;;17.14;60.43
61645;BME280;47553;52.428;13.382;2022-08-11T04:32:19;101873.00;;;17.22;60.22
61645;BME280;47553;52.428;13.382;2022-08-11T04:34:35;101881.97;;;17.23;60.11
61645;BME280;47553;52.428;13.382;2022-08-11T04:36:50;101873.13;;;17.33;59.75
61645;BME280;47553;52.428;13.382;2022-08-11T04:39:07;101871.44;;;17.45;59.75
61645;BME280;47553;52.428;13.382;2022-08-11T04:49:29;101874.69;;;18.39;56.74
61645;BME280;47553;52.428;13.382;2022-08-11T04:51:52;101863.13;;;19.56;52.87
61645;BME280;47553;52.428;13.382;2022-08-11T04:54:04;101866.50;;;20.49;49.75
61645;BME280;47553;52.428;13.382;2022-08-11T04:56:13;101861.38;;;21.22;47.14
61645;BME280;47553;52.428;13.382;2022-08-11T04:58:21;101872.00;;;21.66;45.98
61645;BME280;47553;52.428;13.382;2022-08-11T05:00:40;101871.19;;;22.27;44.35
61645;BME280;47553;52.428;13.382;2022-08-11T05:03:12;101873.28;;;22.54;43.69
61645;BME280;47553;52.428;13.382;2022-08-11T05:05:22;101875.50;;;22.29;44.17
61645;BME280;47553;52.428;13.382;2022-08-11T05:07:51;101879.03;;;21.90;45.05
61645;BME280;47553;52.428;13.382;2022-08-11T05:10:09;101891.34;;;21.52;46.45
61645;BME280;47553;52.428;13.382;2022-08-11T05:12:31;101878.38;;;21.35;46.90
61645;BME280;47553;52.428;13.382;2022-08-11T05:14:40;101879.56;;;21.42;46.78
61645;BME280;47553;52.428;13.382;2022-08-11T05:16:49;101886.78;;;21.32;47.23
61645;BME280;47553;52.428;13.382;2022-08-11T05:18:54;101878.56;;;21.43;46.52
61645;BME280;47553;52.428;13.382;2022-08-11T05:21:03;101876.13;;;21.40;46.50
61645;BME280;47553;52.428;13.382;2022-08-11T05:23:09;101888.75;;;21.50;46.86
61645;BME280;47553;52.428;13.382;2022-08-11T05:25:15;101882.59;;;21.69;46.29
61645;BME280;47553;52.428;13.382;2022-08-11T05:27:44;101876.91;;;21.72;46.04
61645;BME280;47553;52.428;13.382;2022-08-11T05:29:56;101880.47;;;21.94;45.72
61645;BME280;47553;52.428;13.382;2022-08-11T05:32:00;101876.31;;;22.20;44.59
61645;BME280;47553;52.428;13.382;2022-08-11T05:34:09;101877.25;;;22.40;44.42
61645;BME280;47553;52.428;13.382;2022-08-11T05:36:16;101873.28;;;22.54;43.56
61645;BME280;47553;52.428;13.382;2022-08-11T05:38:27;101877.06;;;22.72;42.70
61645;BME280;47553;52.428;13.382;2022-08-11T05:40:30;101873.97;;;22.86;42.80
61645;BME280;47553;52.428;13.382;2022-08-11T05:42:33;101883.09;;;22.75;42.36
61645;BME280;47553;52.428;13.382;2022-08-11T05:44:38;101889.72;;;22.92;42.46
61645;BME280;47553;52.428;13.382;2022-08-11T05:46:41;101879.41;;;22.96;42.25
61645;BME280;47553;52.428;13.382;2022-08-11T05:48:43;101887.72;;;23.14;41.69
61645;BME280;47553;52.428;13.382;2022-08-11T05:50:52;101884.28;;;23.02;41.38
61645;BME280;47553;52.428;13.382;2022-08-11T05:52:56;101890.59;;;23.22;41.67
61645;BME280;47553;52.428;13.382;2022-08-11T05:55:01;101892.31;;;23.42;41.19
61645;BME280;47553;52.428;13.382;2022-08-11T05:57:09;101897.47;;;23.45;40.98
61645;BME280;47553;52.428;13.382;2022-08-11T05:59:38;101900.63;;;23.50;40.75
61645;BME280;47553;52.428;13.382;2022-08-11T06:01:40;101899.50;;;23.62;40.85
61645;BME280;47553;52.428;13.382;2022-08-11T06:03:44;101902.63;;;23.48;41.00
61645;BME280;47553;52.428;13.382;2022-08-11T06:06:07;101902.66;;;23.58;40.63
61645;BME280;47553;52.428;13.382;2022-08-11T06:08:10;101899.78;;;23.59;40.73
61645;BME280;47553;52.428;13.382;2022-08-11T06:10:12;101900.91;;;23.66;40.60
61645;BME280;47553;52.428;13.382;2022-08-11T06:12:16;101896.03;;;23.70;41.13
61645;BME280;47553;52.428;13.382;2022-08-11T06:14:19;101898.03;;;23.68;40.46
61645;BME280;47553;52.428;13.382;2022-08-11T06:16:24;101896.34;;;23.57;41.23
61645;BME280;47553;52.428;13.382;2022-08-11T06:18:28;101909.66;;;23.60;40.96
61645;BME280;47553;52.428;13.382;2022-08-11T06:20:31;101913.97;;;23.63;40.74
61645;BME280;47553;52.428;13.382;2022-08-11T06:22:34;101911.53;;;23.60;40.79
61645;BME280;47553;52.428;13.382;2022-08-11T06:24:40;101907.22;;;23.48;40.96
61645;BME280;47553;52.428;13.382;2022-08-11T06:26:47;101906.38;;;23.47;40.87
61645;BME280;47553;52.428;13.382;2022-08-11T06:29:09;101906.38;;;23.28;40.98
61645;BME280;47553;52.428;13.382;2022-08-11T06:31:12;101907.22;;;23.38;41.26
61645;BME280;47553;52.428;13.382;2022-08-11T06:33:17;101906.66;;;23.34;41.18
61645;BME280;47553;52.428;13.382;2022-08-11T06:35:22;101911.81;;;23.37;41.12
61645;BME280;47553;52.428;13.382;2022-08-11T06:37:38;101914.09;;;23.42;41.44
61645;BME280;47553;52.428;13.382;2022-08-11T06:39:46;101915.25;;;23.30;41.57
61645;BME280;47553;52.428;13.382;2022-08-11T06:41:52;101915.53;;;23.36;41.40
61645;BME280;47553;52.428;13.382;2022-08-11T06:44:02;101918.41;;;23.35;41.64
61645;BME280;47553;52.428;13.382;2022-08-11T06:46:08;101906.34;;;23.08;42.21
61645;BME280;47553;52.428;13.382;2022-08-11T06:48:25;101910.06;;;23.17;42.35
61645;BME280;47553;52.428;13.382;2022-08-11T06:50:28;101911.06;;;23.16;42.18
61645;BME280;47553;52.428;13.382;2022-08-11T06:52:32;101910.06;;;23.17;42.44
61645;BME280;47553;52.428;13.382;2022-08-11T06:54:40;101908.22;;;23.37;42.09
61645;BME280;47553;52.428;13.382;2022-08-11T06:56:45;101911.53;;;23.50;41.25
61645;BME280;47553;52.428;13.382;2022-08-11T06:58:49;101903.19;;;23.52;41.47
61645;BME280;47553;52.428;13.382;2022-08-11T07:00:55;101908.78;;;23.50;41.60
61645;BME280;47553;52.428;13.382;2022-08-11T07:03:00;101911.53;;;23.50;41.30
61645;BME280;47553;52.428;13.382;2022-08-11T07:05:07;101905.81;;;23.34;42.13
61645;BME280;47553;52.428;13.382;2022-08-11T07:10:27;101884.56;;;23.66;40.69
61645;BME280;47553;52.428;13.382;2022-08-11T07:12:39;101895.41;;;23.86;40.78
61645;BME280;47553;52.428;13.382;2022-08-11T07:14:46;101893.47;;;23.68;40.68
61645;BME280;47553;52.428;13.382;2022-08-11T07:16:49;101898.00;;;23.87;40.45
61645;BME280;47553;52.428;13.382;2022-08-11T07:18:54;101889.41;;;23.82;40.13
61645;BME280;47553;52.428;13.382;2022-08-11T07:21:10;101888.81;;;23.98;39.49
61645;BME280;47553;52.428;13.382;2022-08-11T07:23:34;101889.16;;;24.22;39.87
61645;BME280;47553;52.428;13.382;2022-08-11T07:25:41;101882.97;;;24.30;39.40
61645;BME280;47553;52.428;13.382;2022-08-11T07:27:46;101887.91;;;24.44;39.61
61645;BME280;47553;52.428;13.382;2022-08-11T07:29:49;101891.34;;;24.46;38.94
61645;BME280;47553;52.428;13.382;2022-08-11T07:31:52;101883.13;;;24.56;38.82
61645;BME280;47553;52.428;13.382;2022-08-11T07:33:59;101884.84;;;24.57;39.43
61645;BME280;47553;52.428;13.382;2022-08-11T07:36:12;101882.63;;;24.70;38.96
61645;BME280;47553;52.428;13.382;2022-08-11T07:38:17;101885.75;;;24.93;38.74
61645;BME280;47553;52.428;13.382;2022-08-11T07:40:26;101886.63;;;24.93;37.73
61645;BME280;47553;52.428;13.382;2022-08-11T07:42:31;101882.91;;;25.12;37.68
61645;BME280;47553;52.428;13.382;2022-08-11T07:44:35;101884.16;;;25.18;37.07
61645;BME280;47553;52.428;13.382;2022-08-11T07:46:39;101889.53;;;25.27;36.97
61645;BME280;47553;52.428;13.382;2022-08-11T07:48:41;101886.47;;;25.31;37.57
61645;BME280;47553;52.428;13.382;2022-08-11T07:50:43;101889.63;;;25.36;37.47
61645;BME280;47553;52.428;13.382;2022-08-11T07:52:45;101883.94;;;25.73;36.15
61645;BME280;47553;52.428;13.382;2022-08-11T07:54:55;101866.69;;;25.72;36.17
61645;BME280;47553;52.428;13.382;2022-08-11T07:56:57;101882.16;;;26.07;35.79
61645;BME280;47553;52.428;13.382;2022-08-11T07:59:21;101876.91;;;26.22;35.21
61645;BME280;47553;52.428;13.382;2022-08-11T08:01:44;101877.94;;;26.21;35.47
61645;BME280;47553;52.428;13.382;2022-08-11T08:03:47;101866.47;;;26.17;35.30
61645;BME280;47553;52.428;13.382;2022-08-11T08:05:55;101875.13;;;26.39;35.38
61645;BME280;47553;52.428;13.382;2022-08-11T08:07:57;101879.59;;;26.48;34.27
61645;BME280;47553;52.428;13.382;2022-08-11T08:10:00;101877.16;;;26.37;34.69
61645;BME280;47553;52.428;13.382;2022-08-11T08:12:03;101877.56;;;26.50;34.45
61645;BME280;47553;52.428;13.382;2022-08-11T08:14:06;101876.31;;;26.78;33.68
61645;BME280;47553;52.428;13.382;2022-08-11T08:16:10;101881.41;;;26.65;33.34
61645;BME280;47553;52.428;13.382;2022-08-11T08:18:12;101872.03;;;26.76;32.93
61645;BME280;47553;52.428;13.382;2022-08-11T08:20:29;101871.50;;;26.72;33.55
61645;BME280;47553;52.428;13.382;2022-08-11T08:22:33;101870.47;;;26.65;33.72
61645;BME280;47553;52.428;13.382;2022-08-11T08:24:49;101871.84;;;26.69;33.55
61645;BME280;47553;52.428;13.382;2022-08-11T08:26:51;101869.31;;;26.76;33.28
61645;BME280;47553;52.428;13.382;2022-08-11T08:28:54;101870.00;;;26.86;33.10
61645;BME280;47553;52.428;13.382;2022-08-11T08:30:57;101868.13;;;27.03;32.80
61645;BME280;47553;52.428;13.382;2022-08-11T08:33:01;101868.56;;;27.32;32.72
61645;BME280;47553;52.428;13.382;2022-08-11T08:35:04;101865.06;;;27.14;32.25
61645;BME280;47553;52.428;13.382;2022-08-11T08:37:06;101863.59;;;27.28;32.09
61645;BME280;47553;52.428;13.382;2022-08-11T08:39:28;101867.88;;;27.38;32.30
61645;BME280;47553;52.428;13.382;2022-08-11T08:41:31;101864.78;;;27.50;31.60
61645;BME280;47553;52.428;13.382;2022-08-11T08:43:37;101868.53;;;27.48;30.95
61645;BME280;47553;52.428;13.382;2022-08-11T08:45:53;101869.91;;;27.44;31.00
61645;BME280;47553;52.428;13.382;2022-08-11T08:47:58;101860.78;;;27.20;31.30
61645;BME280;47553;52.428;13.382;2022-08-11T08:50:04;101864.38;;;27.20;31.86
61645;BME280;47553;52.428;13.382;2022-08-11T08:52:08;101860.34;;;27.24;31.34
61645;BME280;47553;52.428;13.382;2022-08-11T08:54:33;101864.38;;;27.20;31.51
61645;BME280;47553;52.428;13.382;2022-08-11T08:56:38;101865.06;;;27.14;31.39
61645;BME280;47553;52.428;13.382;2022-08-11T08:58:41;101862.00;;;27.17;31.73
61645;BME280;47553;52.428;13.382;2022-08-11T09:00:49;101856.84;;;27.22;31.92
61645;BME280;47553;52.428;13.382;2022-08-11T09:02:52;101857.19;;;27.19;31.67
61645;BME280;47553;52.428;13.382;2022-08-11T09:04:54;101855.88;;;27.47;31.24
61645;BME280;47553;52.428;13.382;2022-08-11T09:07:02;101857.06;;;27.61;31.03
61645;BME280;47553;52.428;13.382;2022-08-11T09:09:08;101859.25;;;27.74;31.30
61645;BME280;47553;52.428;13.382;2022-08-11T09:11:11;101851.56;;;27.69;30.89
61645;BME280;47553;52.428;13.382;2022-08-11T09:13:14;101844.84;;;27.80;30.62
61645;BME280;47553;52.428;13.382;2022-08-11T09:15:18;101849.63;;;28.02;30.42
61645;BME280;47553;52.428;13.382;2022-08-11T09:17:22;101842.78;;;27.90;30.51
61645;BME280;47553;52.428;13.382;2022-08-11T09:19:25;101847.38;;;28.14;30.08
61645;BME280;47553;52.428;13.382;2022-08-11T09:21:27;101852.00;;;28.14;29.76
61645;BME280;47553;52.428;13.382;2022-08-11T09:23:51;101850.72;;;27.61;30.15
61645;BME280;47553;52.428;13.382;2022-08-11T09:26:13;101848.00;;;27.53;30.25
61645;BME280;47553;52.428;13.382;2022-08-11T09:28:17;101852.75;;;27.67;29.20
61645;BME280;47553;52.428;13.382;2022-08-11T09:30:19;101843.16;;;27.71;29.41
61645;BME280;47553;52.428;13.382;2022-08-11T09:32:22;101846.53;;;28.05;28.78
61645;BME280;47553;52.428;13.382;2022-08-11T09:34:24;101849.13;;;27.91;29.43
61645;BME280;47553;52.428;13.382;2022-08-11T09:36:27;101840.38;;;28.03;29.42
61645;BME280;47553;52.428;13.382;2022-08-11T09:38:29;101833.53;;;27.91;29.51
61645;BME280;47553;52.428;13.382;2022-08-11T09:40:32;101826.63;;;28.12;29.80
61645;BME280;47553;52.428;13.382;2022-08-11T09:42:34;101838.88;;;28.32;29.35
61645;BME280;47553;52.428;13.382;2022-08-11T09:44:37;101832.31;;;28.41;28.76
61645;BME280;47553;52.428;13.382;2022-08-11T09:46:39;101843.00;;;27.64;28.98
61645;BME280;47553;52.428;13.382;2022-08-11T09:48:43;101831.13;;;28.04;29.01
61645;BME280;47553;52.428;13.382;2022-08-11T09:50:47;101829.78;;;27.84;28.41
61645;BME280;47553;52.428;13.382;2022-08-11T09:52:49;101823.75;;;27.97;28.60
61645;BME280;47553;52.428;13.382;2022-08-11T09:55:15;101832.53;;;27.68;29.11
61645;BME280;47553;52.428;13.382;2022-08-11T09:57:19;101822.56;;;27.91;29.16
61645;BME280;47553;52.428;13.382;2022-08-11T09:59:21;101824.56;;;28.14;28.51
61645;BME280;47553;52.428;13.382;2022-08-11T10:01:27;101818.91;;;28.54;28.16
61645;BME280;47553;52.428;13.382;2022-08-11T10:03:31;101817.13;;;28.61;27.71
61645;BME280;47553;52.428;13.382;2022-08-11T10:05:43;101819.81;;;28.69;27.58
61645;BME280;47553;52.428;13.382;2022-08-11T10:07:49;101821.25;;;28.88;27.33
61645;BME280;47553;52.428;13.382;2022-08-11T10:09:55;101817.75;;;28.71;27.77
61645;BME280;47553;52.428;13.382;2022-08-11T10:12:00;101814.69;;;28.66;28.13
61645;BME280;47553;52.428;13.382;2022-08-11T10:14:06;101807.91;;;28.23;28.54
61645;BME280;47553;52.428;13.382;2022-08-11T10:16:31;101808.81;;;28.07;28.74
61645;BME280;47553;52.428;13.382;2022-08-11T10:18:37;101806.13;;;27.99;28.83
61645;BME280;47553;52.428;13.382;2022-08-11T10:20:42;101803.03;;;27.94;28.68
61645;BME280;47553;52.428;13.382;2022-08-11T10:22:45;101807.22;;;27.58;29.16
61645;BME280;47553;52.428;13.382;2022-08-11T10:24:47;101809.78;;;27.59;28.91
61645;BME280;47553;52.428;13.382;2022-08-11T10:27:06;101802.78;;;27.57;29.17
61645;BME280;47553;52.428;13.382;2022-08-11T10:29:10;101804.41;;;27.82;28.30
61645;BME280;47553;52.428;13.382;2022-08-11T10:31:14;101805.06;;;28.08;27.40
61645;BME280;47553;52.428;13.382;2022-08-11T10:33:18;101803.25;;;28.24;27.68
61645;BME280;47553;52.428;13.382;2022-08-11T10:35:40;101797.00;;;28.46;27.64
61645;BME280;47553;52.428;13.382;2022-08-11T10:37:44;101797.19;;;28.36;27.01
61645;BME280;47553;52.428;13.382;2022-08-11T10:40:08;101794.78;;;28.02;27.58
61645;BME280;47553;52.428;13.382;2022-08-11T10:42:10;101795.75;;;27.54;28.04
61645;BME280;47553;52.428;13.382;2022-08-11T10:44:36;101786.84;;;27.20;28.66
61645;BME280;47553;52.428;13.382;2022-08-11T10:46:39;101787.88;;;26.94;28.67
61645;BME280;47553;52.428;13.382;2022-08-11T10:48:40;101785.66;;;26.90;29.38
61645;BME280;47553;52.428;13.382;2022-08-11T10:50:45;101790.81;;;27.01;29.06
61645;BME280;47553;52.428;13.382;2022-08-11T10:52:48;101780.19;;;27.06;29.15
61645;BME280;47553;52.428;13.382;2022-08-11T10:54:51;101780.19;;;27.22;29.29
61645;BME280;47553;52.428;13.382;2022-08-11T10:56:54;101777.28;;;27.40;29.09
61645;BME280;47553;52.428;13.382;2022-08-11T10:58:56;101772.22;;;27.76;28.63
61645;BME280;47553;52.428;13.382;2022-08-11T11:01:05;101769.94;;;28.04;28.12
61645;BME280;47553;52.428;13.382;2022-08-11T11:03:08;101772.28;;;28.15;27.85
61645;BME280;47553;52.428;13.382;2022-08-11T11:05:28;101769.63;;;28.30;27.31
61645;BME280;47553;52.428;13.382;2022-08-11T11:07:37;101766.34;;;27.95;27.86
61645;BME280;47553;52.428;13.382;2022-08-11T11:09:47;101763.28;;;27.82;28.18
61645;BME280;47553;52.428;13.382;2022-08-11T11:11:52;101757.91;;;27.58;28.55
61645;BME280;47553;52.428;13.382;2022-08-11T11:13:54;101756.19;;;27.57;28.18
61645;BME280;47553;52.428;13.382;2022-08-11T11:15:58;101758.84;;;27.81;28.05
61645;BME280;47553;52.428;13.382;2022-08-11T11:18:04;101753.56;;;28.19;27.64
61645;BME280;47553;52.428;13.382;2022-08-11T11:20:07;101758.34;;;28.25;27.93
61645;BME280;47553;52.428;13.382;2022-08-11T11:22:30;101757.00;;;28.21;26.33
61645;BME280;47553;52.428;13.382;2022-08-11T11:24:39;101755.78;;;28.54;26.67
61645;BME280;47553;52.428;13.382;2022-08-11T11:26:50;101751.63;;;28.58;26.31
61645;BME280;47553;52.428;13.382;2022-08-11T11:29:18;101750.06;;;28.87;25.97
61645;BME280;47553;52.428;13.382;2022-08-11T11:31:31;101753.34;;;28.59;26.35
61645;BME280;47553;52.428;13.382;2022-08-11T11:33:48;101759.13;;;28.64;26.36
61645;BME280;47553;52.428;13.382;2022-08-11T11:36:17;101748.59;;;28.53;26.68
61645;BME280;47553;52.428;13.382;2022-08-11T11:38:23;101740.28;;;28.61;26.97
61645;BME280;47553;52.428;13.382;2022-08-11T11:40:26;101749.13;;;28.94;26.90
61645;BME280;47553;52.428;13.382;2022-08-11T11:42:32;101737.66;;;29.28;26.68
61645;BME280;47553;52.428;13.382;2022-08-11T11:44:36;101733.78;;;29.38;25.60
61645;BME280;47553;52.428;13.382;2022-08-11T11:46:38;101722.72;;;29.46;25.11
61645;BME280;47553;52.428;13.382;2022-08-11T11:48:42;101727.47;;;29.52;25.06